Página principal
METAR-TAF:

METAR-TAF

Aeroportos :

Armilla

Granada, Espanha

latitude: 37-08N, longitude: 003-38-08W, altura: 700 m

Observação actual do tempo

O boletim foi feito há 6 horas e 19 minutos, às 14:00 UTC
Vento 2 kt com direcção variável
Temperatura 13°C
Humidade 35%
Pressão 1029 hPa
Visibilidade 10 km ou mais
sem nuvens abaixo de 1500 metros e sem cumulonimbus

METAR: LEGA 171400Z VRB02KT CAVOK 13/M02 Q1029

Hora: 21:19 (20:19 UTC)

Previsão

O boletim foi feito há 9 horas e 19 minutos, às 11:00 UTC
Previsão válida de 17 às 12 UTC a 18 às 12 UTC
Vento 9 kt de sul
Visibilidade 10 km ou mais
sem nuvens abaixo de 1500 metros e sem cumulonimbus

TAF: LEGA 171100Z 1712/1812 17009KT CAVOK TX14/1716Z TN02/1806Z

Observações e previsões do tempo de mais de 4000 aeroportos (mensagens METAR e TAF).

As estações disponíveis são os pontos amarelos e vermelhos sobre o mapa.

Mova o rato sobre o mapa para ver o nome da estação.

Depois clique no ponto para visualizar as observações e previsões meteorológicas.

Para alterar o mapa : clique nos botões verdes com uma cruz preta para aumentar o zoom; no botão verde com uma pitada de zoom; ou nas setas verdes para mapas adjacentes.


METAR-TAF: